Time,TemperatureF,DewpointF,PressureIn,WindDirection,WindDirectionDegrees,WindSpeedMPH,WindSpeedGustMPH,Humidity,HourlyPrecipIn,Conditions,Clouds,dailyrainin,SoftwareType,DateUTC
2013-09-18 00:04:00,69.5,58.0,29.68,South,173,0.0,2.0,67,0.00,,,0.00,weatherlink.com 1.10,2013-09-18 06:04:00,
2013-09-18 00:19:00,69.3,58.0,29.68,ESE,122,1.0,3.0,67,0.00,,,0.00,weatherlink.com 1.10,2013-09-18 06:19:00,
2013-09-18 00:34:00,69.3,58.0,29.68,ESE,107,1.0,4.0,68,0.00,,,0.00,weatherlink.com 1.10,2013-09-18 06:34:00,
2013-09-18 00:49:00,69.3,59.0,29.68,ESE,116,0.0,3.0,69,0.00,,,0.00,weatherlink.com 1.10,2013-09-18 06:49:00,
2013-09-18 01:04:00,68.8,59.0,29.68,SSW,193,0.0,1.0,70,0.00,,,0.00,weatherlink.com 1.10,2013-09-18 07:04:00,
2013-09-18 01:19:00,68.1,58.0,29.68,SW,226,0.0,2.0,71,0.00,,,0.00,weatherlink.com 1.10,2013-09-18 07:19:00,
2013-09-18 01:34:00,67.5,59.0,29.68,SSE,162,0.0,1.0,73,0.00,,,0.00,weatherlink.com 1.10,2013-09-18 07:34:00,
2013-09-18 01:49:00,67.1,59.0,29.69,SSE,162,0.0,0.0,76,0.00,,,0.00,weatherlink.com 1.10,2013-09-18 07:49:00,
2013-09-18 02:04:00,67.6,59.0,29.68,SSE,162,0.0,0.0,74,0.00,,,0.00,weatherlink.com 1.10,2013-09-18 08:04:00,
2013-09-18 02:19:00,67.5,59.0,29.68,SSE,161,0.0,0.0,74,0.00,,,0.00,weatherlink.com 1.10,2013-09-18 08:19:00,
2013-09-18 02:34:00,67.5,59.0,29.68,SSE,152,0.0,2.0,74,0.00,,,0.00,weatherlink.com 1.10,2013-09-18 08:34:00,
2013-09-18 02:49:00,67.5,59.0,29.68,SSE,152,0.0,0.0,74,0.00,,,0.00,weatherlink.com 1.10,2013-09-18 08:49:00,
2013-09-18 03:04:00,67.0,59.0,29.67,SSE,152,0.0,1.0,75,0.00,,,0.00,weatherlink.com 1.10,2013-09-18 09:04:00,
2013-09-18 03:19:00,66.1,59.0,29.67,SSE,152,0.0,1.0,77,0.00,,,0.00,weatherlink.com 1.10,2013-09-18 09:19:00,
2013-09-18 03:34:00,65.9,59.0,29.66,SE,132,1.0,2.0,78,0.00,,,0.00,weatherlink.com 1.10,2013-09-18 09:34:00,
2013-09-18 03:49:00,65.8,59.0,29.66,SE,134,0.0,2.0,78,0.00,,,0.00,weatherlink.com 1.10,2013-09-18 09:49:00,
2013-09-18 04:04:00,65.9,59.0,29.66,WSW,240,0.0,1.0,79,0.00,,,0.00,weatherlink.com 1.10,2013-09-18 10:04:00,
2013-09-18 04:19:00,66.2,59.0,29.66,SSW,203,0.0,1.0,78,0.00,,,0.00,weatherlink.com 1.10,2013-09-18 10:19:00,
2013-09-18 04:34:00,66.2,59.0,29.66,SSE,166,0.0,1.0,78,0.00,,,0.00,weatherlink.com 1.10,2013-09-18 10:34:00,
2013-09-18 04:49:00,66.2,59.0,29.66,SSE,159,0.0,2.0,78,0.00,,,0.00,weatherlink.com 1.10,2013-09-18 10:49:00,
2013-09-18 05:04:00,65.8,59.0,29.66,South,180,0.0,2.0,79,0.00,,,0.00,weatherlink.com 1.10,2013-09-18 11:04:00,
2013-09-18 05:19:00,65.9,59.0,29.66,SSE,162,0.0,1.0,79,0.00,,,0.00,weatherlink.com 1.10,2013-09-18 11:19:00,
2013-09-18 05:34:00,65.3,59.0,29.66,SSE,162,0.0,0.0,80,0.00,,,0.00,weatherlink.com 1.10,2013-09-18 11:34:00,
2013-09-18 05:49:00,65.3,59.0,29.67,SSE,162,0.0,0.0,81,0.00,,,0.00,weatherlink.com 1.10,2013-09-18 11:49:00,
2013-09-18 06:04:00,66.0,60.0,29.67,SSE,162,0.0,0.0,80,0.00,,,0.00,weatherlink.com 1.10,2013-09-18 12:04:00,
2013-09-18 06:20:00,65.3,59.0,29.67,SE,146,0.0,1.0,80,0.00,,,0.00,weatherlink.com 1.10,2013-09-18 12:20:00,
2013-09-18 06:35:00,65.4,59.0,29.68,SE,131,1.0,2.0,79,0.00,,,0.00,weatherlink.com 1.10,2013-09-18 12:35:00,
2013-09-18 06:50:00,65.4,58.0,29.68,SW,232,1.0,2.0,78,0.00,,,0.00,weatherlink.com 1.10,2013-09-18 12:50:00,
2013-09-18 07:05:00,65.5,58.0,29.69,SSE,162,0.0,4.0,78,0.00,,,0.00,weatherlink.com 1.10,2013-09-18 13:05:00,
2013-09-18 07:20:00,65.5,58.0,29.69,SE,135,1.0,2.0,78,0.00,,,0.00,weatherlink.com 1.10,2013-09-18 13:20:00,
2013-09-18 07:35:00,65.4,58.0,29.69,SSE,148,0.0,4.0,78,0.00,,,0.00,weatherlink.com 1.10,2013-09-18 13:35:00,
2013-09-18 07:50:00,66.1,59.0,29.70,ESE,103,0.0,8.0,77,0.00,,,0.00,weatherlink.com 1.10,2013-09-18 13:50:00,
2013-09-18 08:05:00,66.8,59.0,29.69,ESE,121,2.0,9.0,75,0.00,,,0.00,weatherlink.com 1.10,2013-09-18 14:05:00,
2013-09-18 08:20:00,67.9,59.0,29.70,SE,138,0.0,6.0,73,0.00,,,0.00,weatherlink.com 1.10,2013-09-18 14:20:00,
2013-09-18 08:35:00,69.5,60.0,29.70,SE,129,3.0,6.0,71,0.00,,,0.00,weatherlink.com 1.10,2013-09-18 14:35:00,
2013-09-18 08:50:00,71.0,60.0,29.69,WSW,253,2.0,5.0,68,0.00,,,0.00,weatherlink.com 1.10,2013-09-18 14:50:00,
2013-09-18 09:05:00,72.0,60.0,29.70,SW,235,3.0,6.0,66,0.00,,,0.00,weatherlink.com 1.10,2013-09-18 15:05:00,
2013-09-18 09:20:00,72.5,60.0,29.69,SW,221,2.0,6.0,65,0.00,,,0.00,weatherlink.com 1.10,2013-09-18 15:20:00,
2013-09-18 09:35:00,72.9,60.0,29.69,ENE,77,2.0,9.0,64,0.00,,,0.00,weatherlink.com 1.10,2013-09-18 15:35:00,
2013-09-18 09:50:00,73.4,60.0,29.69,WSW,238,3.0,7.0,64,0.00,,,0.00,weatherlink.com 1.10,2013-09-18 15:50:00,
2013-09-18 10:05:00,74.1,61.0,29.69,South,186,1.0,6.0,63,0.00,,,0.00,weatherlink.com 1.10,2013-09-18 16:05:00,
2013-09-18 10:20:00,75.4,61.0,29.68,West,259,2.0,5.0,61,0.00,,,0.00,weatherlink.com 1.10,2013-09-18 16:20:00,
2013-09-18 10:35:00,76.2,61.0,29.68,SSW,203,3.0,6.0,60,0.00,,,0.00,weatherlink.com 1.10,2013-09-18 16:35:00,
2013-09-18 10:50:00,77.0,61.0,29.67,WSW,243,3.0,5.0,58,0.00,,,0.00,weatherlink.com 1.10,2013-09-18 16:50:00,
2013-09-18 11:05:00,77.3,61.0,29.67,SE,136,3.0,11.0,57,0.00,,,0.00,weatherlink.com 1.10,2013-09-18 17:05:00,
2013-09-18 11:20:00,78.6,60.0,29.66,SSW,210,2.0,7.0,53,0.00,,,0.00,weatherlink.com 1.10,2013-09-18 17:20:00,
2013-09-18 11:35:00,78.6,60.0,29.66,SW,214,6.0,7.0,54,0.00,,,0.00,weatherlink.com 1.10,2013-09-18 17:35:00,
2013-09-18 12:05:00,80.7,60.0,29.64,SE,146,2.0,7.0,49,0.00,,,0.00,weatherlink.com 1.10,2013-09-18 18:05:00,
2013-09-18 12:20:00,80.4,58.0,29.64,SW,228,2.0,7.0,47,0.00,,,0.00,weatherlink.com 1.10,2013-09-18 18:20:00,
2013-09-18 12:35:00,81.5,60.0,29.63,ENE,73,2.0,8.0,48,0.00,,,0.00,weatherlink.com 1.10,2013-09-18 18:35:00,
2013-09-18 12:51:00,81.5,58.0,29.62,SW,223,3.0,10.0,45,0.00,,,0.00,weatherlink.com 1.10,2013-09-18 18:51:00,
2013-09-18 13:05:00,82.3,58.0,29.62,SSE,165,1.0,7.0,44,0.00,,,0.00,weatherlink.com 1.10,2013-09-18 19:05:00,
2013-09-18 13:21:00,82.6,58.0,29.61,WSW,245,4.0,8.0,43,0.00,,,0.00,weatherlink.com 1.10,2013-09-18 19:21:00,
2013-09-18 13:36:00,83.2,58.0,29.59,SSW,201,2.0,9.0,42,0.00,,,0.00,weatherlink.com 1.10,2013-09-18 19:36:00,
2013-09-18 13:51:00,83.6,57.0,29.59,West,264,2.0,8.0,41,0.00,,,0.00,weatherlink.com 1.10,2013-09-18 19:51:00,
2013-09-18 14:06:00,83.6,57.0,29.59,SSW,210,3.0,8.0,41,0.00,,,0.00,weatherlink.com 1.10,2013-09-18 20:06:00,
2013-09-18 14:21:00,83.6,57.0,29.59,SSW,195,3.0,8.0,41,0.00,,,0.00,weatherlink.com 1.10,2013-09-18 20:21:00,
2013-09-18 14:36:00,83.6,57.0,29.58,SSE,165,2.0,7.0,40,0.00,,,0.00,weatherlink.com 1.10,2013-09-18 20:36:00,
2013-09-18 15:06:00,85.0,57.0,29.56,SW,215,1.0,8.0,39,0.00,,,0.00,weatherlink.com 1.10,2013-09-18 21:06:00,
2013-09-18 15:21:00,86.1,57.0,29.55,WSW,250,1.0,7.0,37,0.00,,,0.00,weatherlink.com 1.10,2013-09-18 21:21:00,
2013-09-18 15:36:00,84.2,54.0,29.54,WSW,248,2.0,6.0,36,0.00,,,0.00,weatherlink.com 1.10,2013-09-18 21:36:00,
2013-09-18 15:51:00,82.7,52.0,29.55,SW,229,3.0,6.0,35,0.00,,,0.00,weatherlink.com 1.10,2013-09-18 21:51:00,
2013-09-18 16:06:00,81.1,53.0,29.54,West,262,2.0,5.0,38,0.00,,,0.00,weatherlink.com 1.10,2013-09-18 22:06:00,
2013-09-18 16:21:00,80.4,53.0,29.54,WSW,238,2.0,4.0,39,0.00,,,0.00,weatherlink.com 1.10,2013-09-18 22:21:00,
2013-09-18 16:36:00,79.9,53.0,29.54,SW,235,2.0,6.0,40,0.00,,,0.00,weatherlink.com 1.10,2013-09-18 22:36:00,
2013-09-18 16:51:00,79.6,54.0,29.55,WSW,257,2.0,5.0,41,0.00,,,0.00,weatherlink.com 1.10,2013-09-18 22:51:00,
2013-09-18 17:06:00,78.9,54.0,29.55,SW,217,1.0,6.0,43,0.00,,,0.00,weatherlink.com 1.10,2013-09-18 23:06:00,
2013-09-18 17:21:00,78.3,55.0,29.56,SSW,201,0.0,4.0,44,0.00,,,0.00,weatherlink.com 1.10,2013-09-18 23:21:00,
2013-09-18 17:36:00,77.9,55.0,29.56,SSE,163,0.0,4.0,45,0.00,,,0.00,weatherlink.com 1.10,2013-09-18 23:36:00,
2013-09-18 17:51:00,77.9,55.0,29.55,SW,219,2.0,3.0,46,0.00,,,0.00,weatherlink.com 1.10,2013-09-18 23:51:00,
2013-09-18 18:06:00,76.9,56.0,29.55,SSW,204,2.0,6.0,48,0.00,,,0.00,weatherlink.com 1.10,2013-09-19 00:06:00,
2013-09-18 18:21:00,75.9,56.0,29.55,SSW,200,0.0,2.0,51,0.00,,,0.00,weatherlink.com 1.10,2013-09-19 00:21:00,
2013-09-18 18:36:00,75.4,57.0,29.55,SSW,200,0.0,1.0,53,0.00,,,0.00,weatherlink.com 1.10,2013-09-19 00:36:00,
2013-09-18 18:51:00,74.8,56.0,29.55,NNW,342,0.0,2.0,53,0.00,,,0.00,weatherlink.com 1.10,2013-09-19 00:51:00,
2013-09-18 19:06:00,74.0,57.0,29.56,North,1,0.0,3.0,55,0.00,,,0.00,weatherlink.com 1.10,2013-09-19 01:06:00,
2013-09-18 19:21:00,73.8,57.0,29.57,NNW,338,0.0,4.0,56,0.00,,,0.00,weatherlink.com 1.10,2013-09-19 01:21:00,
2013-09-18 19:36:00,74.1,57.0,29.57,North,353,0.0,1.0,55,0.00,,,0.00,weatherlink.com 1.10,2013-09-19 01:36:00,
2013-09-18 19:51:00,74.1,57.0,29.57,North,1,0.0,1.0,56,0.00,,,0.00,weatherlink.com 1.10,2013-09-19 01:51:00,
2013-09-18 20:06:00,74.2,57.0,29.56,North,1,0.0,0.0,56,0.00,,,0.00,weatherlink.com 1.10,2013-09-19 02:06:00,
2013-09-18 20:21:00,73.7,57.0,29.56,ESE,121,2.0,2.0,56,0.00,,,0.00,weatherlink.com 1.10,2013-09-19 02:21:00,
2013-09-18 20:36:00,74.5,57.0,29.55,SE,125,0.0,4.0,55,0.00,,,0.00,weatherlink.com 1.10,2013-09-19 02:36:00,
2013-09-18 20:51:00,73.8,57.0,29.57,NNW,328,0.0,1.0,55,0.00,,,0.00,weatherlink.com 1.10,2013-09-19 02:51:00,
2013-09-18 21:21:00,73.1,57.0,29.59,NNE,18,2.0,2.0,58,0.00,,,0.00,weatherlink.com 1.10,2013-09-19 03:21:00,
2013-09-18 21:36:00,72.2,58.0,29.59,NNE,18,0.0,0.0,62,0.00,,,0.00,weatherlink.com 1.10,2013-09-19 03:36:00,
2013-09-18 21:51:00,73.2,58.0,29.59,NNE,18,0.0,0.0,59,0.00,,,0.00,weatherlink.com 1.10,2013-09-19 03:51:00,
2013-09-18 22:06:00,72.9,57.0,29.59,SSE,152,2.0,4.0,57,0.00,,,0.00,weatherlink.com 1.10,2013-09-19 04:06:00,
2013-09-18 22:21:00,73.2,56.0,29.59,East,89,4.0,4.0,56,0.00,,,0.00,weatherlink.com 1.10,2013-09-19 04:21:00,
2013-09-18 22:36:00,73.1,56.0,29.59,ESE,120,3.0,4.0,56,0.00,,,0.00,weatherlink.com 1.10,2013-09-19 04:36:00,
2013-09-18 22:51:00,72.6,57.0,29.60,SSE,165,0.0,2.0,58,0.00,,,0.00,weatherlink.com 1.10,2013-09-19 04:51:00,
2013-09-18 23:06:00,72.2,57.0,29.60,SE,129,1.0,2.0,59,0.00,,,0.00,weatherlink.com 1.10,2013-09-19 05:06:00,
2013-09-18 23:21:00,72.1,56.0,29.59,ESE,118,4.0,5.0,58,0.00,,,0.00,weatherlink.com 1.10,2013-09-19 05:21:00,
2013-09-18 23:36:00,72.2,56.0,29.60,WSW,255,0.0,2.0,58,0.00,,,0.00,weatherlink.com 1.10,2013-09-19 05:36:00,
2013-09-18 23:51:00,71.9,57.0,29.59,SE,139,0.0,3.0,59,0.00,,,0.00,weatherlink.com 1.10,2013-09-19 05:51:00,